Time;durP1;ratioP1;P1;durP2;ratioP2;P2;SDS_P1;SDS_P2;PMS_P1;PMS_P2;Temp;Humidity;BMP_temperature;BMP_pressure;BME280_temperature;BME280_humidity;BME280_pressure;Samples;Min_cycle;Max_cycle;Signal;HPM_P1;HPM_P2
2022/12/08 00:01:17;;;;;;;;;;;;;;;;;;6226882;23;20263;-91
2022/12/08 00:03:43;;;;;;;;;;;;;;;;;;6225458;23;19926;-90
2022/12/08 00:11:58;;;;;;;;;;;;;;;;;;6135198;23;19924;-90
2022/12/08 00:14:24;;;;;;;;;;;;;;;;;;6139151;23;19985;-91
2022/12/08 00:16:50;;;;;;;;;;;;;;;;;;6169120;23;19919;-90
2022/12/08 00:19:16;;;;;;;;;;;;;;;;;;6229990;23;20005;-91
2022/12/08 00:21:42;;;;;;;;;;;;;;;;;;6225537;23;19927;-91
2022/12/08 00:24:08;;;;;;;;;;;;;;;;;;6229846;23;19920;-91
2022/12/08 00:26:34;;;;;;;;;;;;;;;;;;6228698;23;19945;-91
2022/12/08 00:29:00;;;;;;;;;;;;;;;;;;6229907;23;20383;-91
2022/12/08 00:31:26;;;;;;;;;;;;;;;;;;6230489;23;20297;-91
2022/12/08 00:33:52;;;;;;;;;;;;;;;;;;6225799;23;20006;-91
2022/12/08 00:36:18;;;;;;;;;;;;;;;;;;6228623;23;19990;-91
2022/12/08 00:38:46;;;;;;;;;;;;;;;;;;6229398;23;20002;-91
2022/12/08 00:41:11;;;;;;;;;;;;;;;;;;6234346;23;19991;-91
2022/12/08 00:43:37;;;;;;;;;;;;;;;;;;6230525;23;19955;-91
2022/12/08 00:46:03;;;;;;;;;;;;;;;;;;6234155;23;19946;-91
2022/12/08 00:48:29;;;;;;;;;;;;;;;;;;6233511;23;19920;-91
2022/12/08 00:50:55;;;;;;;;;;;;;;;;;;6228105;23;20314;-91
2022/12/08 00:53:21;;;;;;;;;;;;;;;;;;6227211;23;19998;-91
2022/12/08 00:55:47;;;;;;;;;;;;;;;;;;6226225;22;20029;-90
2022/12/08 00:58:13;;;;;;;;;;;;;;;;;;6229329;23;19915;-90
2022/12/08 01:00:39;;;;;;;;;;;;;;;;;;6222916;23;19923;-91
2022/12/08 01:03:05;;;;;;;;;;;;;;;;;;6226738;23;19939;-91
2022/12/08 01:05:31;;;;;;;;;;;;;;;;;;6227723;23;19946;-90
2022/12/08 01:07:57;;;;;;;;;;;;;;;;;;6229997;23;19986;-91
2022/12/08 01:10:23;;;;;;;;;;;;;;;;;;6231594;23;20364;-91
2022/12/08 01:12:49;;;;;;;;;;;;;;;;;;6228466;23;19995;-91
2022/12/08 01:15:15;;;;;;;;;;;;;;;;;;6227690;23;19922;-91
2022/12/08 01:17:40;;;;;;;;;;;;;;;;;;6225651;23;20013;-90
2022/12/08 01:20:07;;;;;;;;;;;;;;;;;;6228891;23;19920;-90
2022/12/08 01:22:34;;;;;;;;;;;;;;;;;;6225506;23;19969;-91
2022/12/08 01:24:59;;;;;;;;;;;;;;;;;;6228397;23;19916;-89
2022/12/08 01:27:25;;;;;;;;;;;;;;;;;;6229086;23;20332;-90
2022/12/08 01:29:51;;;;;;;;;;;;;;;;;;6230098;23;20339;-89
2022/12/08 01:32:17;;;;;;;;;;;;;;;;;;6228043;23;19927;-89
2022/12/08 01:34:43;;;;;;;;;;;;;;;;;;6226798;23;19919;-88
2022/12/08 01:37:11;;;;;;;;;;;;;;;;;;6229171;23;19920;-90
2022/12/08 01:39:37;;;;;;;;;;;;;;;;;;6224285;23;19919;-89
2022/12/08 01:42:03;;;;;;;;;;;;;;;;;;6230984;23;19942;-89
2022/12/08 01:44:29;;;;;;;;;;;;;;;;;;6229274;23;19919;-89
2022/12/08 01:46:55;;;;;;;;;;;;;;;;;;6229369;23;19970;-89
2022/12/08 01:49:21;;;;;;;;;;;;;;;;;;6232551;23;19955;-89
2022/12/08 01:51:47;;;;;;;;;;;;;;;;;;6226380;23;20333;-89
2022/12/08 01:54:12;;;;;;;;;;;;;;;;;;6228840;22;20489;-89
2022/12/08 01:56:38;;;;;;;;;;;;;;;;;;6224389;23;19926;-90
2022/12/08 01:59:04;;;;;;;;;;;;;;;;;;6230504;23;19916;-90
2022/12/08 02:01:33;;;;;;;;;;;;;;;;;;6226755;23;19924;-90
2022/12/08 02:03:59;;;;;;;;;;;;;;;;;;6227178;23;20405;-90
2022/12/08 02:06:25;;;;;;;;;;;;;;;;;;6228793;23;20002;-90
2022/12/08 02:08:53;;;;;;;;;;;;;;;;;;6226553;23;20321;-90
2022/12/08 02:11:19;;;;;;;;;;;;;;;;;;6228677;23;19930;-91
2022/12/08 02:13:45;;;;;;;;;;;;;;;;;;6226953;23;19923;-91
2022/12/08 02:16:11;;;;;;;;;;;;;;;;;;6229331;23;19919;-90
2022/12/08 02:18:37;;;;;;;;;;;;;;;;;;6223480;23;19966;-90
2022/12/08 02:21:03;;;;;;;;;;;;;;;;;;6227274;23;19920;-89
2022/12/08 02:23:29;;;;;;;;;;;;;;;;;;6226157;23;20341;-90
2022/12/08 02:25:55;;;;;;;;;;;;;;;;;;6225161;23;19926;-88
2022/12/08 02:28:21;;;;;;;;;;;;;;;;;;6227878;23;19990;-89
2022/12/08 02:30:47;;;;;;;;;;;;;;;;;;6226967;23;19919;-89
2022/12/08 02:33:13;;;;;;;;;;;;;;;;;;6230762;23;19927;-89
2022/12/08 02:35:39;;;;;;;;;;;;;;;;;;6228348;23;20668;-90
2022/12/08 02:38:05;;;;;;;;;;;;;;;;;;6230569;23;19950;-90
2022/12/08 02:40:31;;;;;;;;;;;;;;;;;;6228850;23;20282;-90
2022/12/08 02:42:57;;;;;;;;;;;;;;;;;;6233372;23;19958;-89
2022/12/08 02:45:23;;;;;;;;;;;;;;;;;;6232677;23;20392;-90
2022/12/08 02:47:49;;;;;;;;;;;;;;;;;;6229234;23;19920;-90
2022/12/08 02:50:14;;;;;;;;;;;;;;;;;;6232934;23;19926;-90
2022/12/08 02:52:40;;;;;;;;;;;;;;;;;;6228867;23;19930;-90
2022/12/08 02:55:06;;;;;;;;;;;;;;;;;;6229605;22;19916;-90
2022/12/08 02:57:32;;;;;;;;;;;;;;;;;;6229704;23;19919;-91
2022/12/08 02:59:58;;;;;;;;;;;;;;;;;;6232268;23;19920;-89
2022/12/08 03:02:24;;;;;;;;;;;;;;;;;;6231284;23;20301;-89
2022/12/08 03:04:50;;;;;;;;;;;;;;;;;;6229868;23;19954;-90
2022/12/08 03:07:16;;;;;;;;;;;;;;;;;;6230587;23;19990;-89
2022/12/08 03:09:42;;;;;;;;;;;;;;;;;;6227379;23;19982;-89
2022/12/08 03:12:08;;;;;;;;;;;;;;;;;;6231511;23;19930;-89
2022/12/08 03:14:34;;;;;;;;;;;;;;;;;;6227704;23;20344;-89
2022/12/08 03:17:00;;;;;;;;;;;;;;;;;;6231164;23;20277;-89
2022/12/08 03:19:26;;;;;;;;;;;;;;;;;;6231217;23;19920;-89
2022/12/08 03:21:52;;;;;;;;;;;;;;;;;;6225805;23;20642;-89
2022/12/08 03:24:18;;;;;;;;;;;;;;;;;;6229181;23;20229;-90
2022/12/08 03:26:44;;;;;;;;;;;;;;;;;;6226232;23;19991;-89
2022/12/08 03:29:10;;;;;;;;;;;;;;;;;;6228111;23;19978;-90
2022/12/08 03:31:36;;;;;;;;;;;;;;;;;;6222544;23;20307;-90
2022/12/08 03:34:02;;;;;;;;;;;;;;;;;;6230918;23;19919;-89
2022/12/08 03:36:27;;;;;;;;;;;;;;;;;;6233920;23;20012;-89
2022/12/08 03:38:53;;;;;;;;;;;;;;;;;;6229876;23;20240;-90
2022/12/08 03:41:19;;;;;;;;;;;;;;;;;;6231219;23;20288;-89
2022/12/08 03:43:46;;;;;;;;;;;;;;;;;;6230014;23;19926;-89
2022/12/08 03:46:12;;;;;;;;;;;;;;;;;;6231828;23;19919;-89
2022/12/08 03:48:38;;;;;;;;;;;;;;;;;;6229848;23;19969;-89
2022/12/08 03:51:04;;;;;;;;;;;;;;;;;;6231478;23;19920;-89
2022/12/08 03:53:30;;;;;;;;;;;;;;;;;;6230656;23;19958;-90
2022/12/08 03:55:55;;;;;;;;;;;;;;;;;;6230352;22;19926;-90
2022/12/08 03:58:21;;;;;;;;;;;;;;;;;;6233266;23;19919;-90
2022/12/08 04:00:47;;;;;;;;;;;;;;;;;;6229377;23;19920;-89
2022/12/08 04:03:13;;;;;;;;;;;;;;;;;;6233285;23;19930;-89
2022/12/08 04:05:39;;;;;;;;;;;;;;;;;;6231105;23;19951;-89
2022/12/08 04:08:05;;;;;;;;;;;;;;;;;;6232107;23;19923;-90
2022/12/08 04:10:31;;;;;;;;;;;;;;;;;;6228039;23;19962;-90
2022/12/08 04:12:57;;;;;;;;;;;;;;;;;;6229888;23;19928;-90
2022/12/08 04:15:23;;;;;;;;;;;;;;;;;;6233417;23;20327;-90
2022/12/08 04:17:49;;;;;;;;;;;;;;;;;;6230366;23;19938;-89
2022/12/08 04:20:15;;;;;;;;;;;;;;;;;;6233066;23;19916;-90
2022/12/08 04:22:41;;;;;;;;;;;;;;;;;;6227885;23;19923;-89
2022/12/08 04:25:07;;;;;;;;;;;;;;;;;;6230671;23;19969;-90
2022/12/08 04:27:33;;;;;;;;;;;;;;;;;;6228872;23;19919;-89
2022/12/08 04:29:59;;;;;;;;;;;;;;;;;;6231117;23;19915;-90
2022/12/08 04:32:25;;;;;;;;;;;;;;;;;;6230846;23;19994;-90
2022/12/08 04:34:51;;;;;;;;;;;;;;;;;;6227549;23;20461;-90
2022/12/08 04:37:16;;;;;;;;;;;;;;;;;;6229006;23;19970;-90
2022/12/08 04:39:42;;;;;;;;;;;;;;;;;;6230069;23;19969;-90
2022/12/08 04:42:08;;;;;;;;;;;;;;;;;;6231519;23;19941;-90
2022/12/08 04:44:34;;;;;;;;;;;;;;;;;;6226861;23;19926;-90
2022/12/08 04:47:00;;;;;;;;;;;;;;;;;;6231097;23;19951;-90
2022/12/08 04:49:29;;;;;;;;;;;;;;;;;;6231948;23;19915;-90
2022/12/08 04:51:55;;;;;;;;;;;;;;;;;;6229660;23;19924;-89
2022/12/08 04:54:21;;;;;;;;;;;;;;;;;;6231050;22;19951;-90
2022/12/08 04:56:47;;;;;;;;;;;;;;;;;;6228020;23;19962;-90
2022/12/08 04:59:12;;;;;;;;;;;;;;;;;;6232786;23;20001;-89
2022/12/08 05:01:38;;;;;;;;;;;;;;;;;;6226962;23;19919;-90
2022/12/08 05:04:04;;;;;;;;;;;;;;;;;;6232283;23;20362;-90
2022/12/08 05:06:33;;;;;;;;;;;;;;;;;;6230593;23;19923;-90
2022/12/08 05:08:59;;;;;;;;;;;;;;;;;;6230706;23;19954;-89
2022/12/08 05:11:25;;;;;;;;;;;;;;;;;;6230258;23;19919;-89
2022/12/08 05:13:51;;;;;;;;;;;;;;;;;;6227312;23;20455;-89
2022/12/08 05:16:17;;;;;;;;;;;;;;;;;;6229424;23;19990;-89
2022/12/08 05:18:43;;;;;;;;;;;;;;;;;;6226934;23;20419;-89
2022/12/08 05:21:09;;;;;;;;;;;;;;;;;;6229965;23;19920;-89
2022/12/08 05:23:35;;;;;;;;;;;;;;;;;;6228919;23;20017;-89
2022/12/08 05:26:01;;;;;;;;;;;;;;;;;;6228496;23;19919;-89
2022/12/08 05:28:27;;;;;;;;;;;;;;;;;;6232619;23;20284;-89
2022/12/08 05:30:53;;;;;;;;;;;;;;;;;;6229085;23;19927;-91
2022/12/08 05:33:19;;;;;;;;;;;;;;;;;;6231844;23;19923;-89
2022/12/08 05:35:44;;;;;;;;;;;;;;;;;;6230188;23;19923;-89
2022/12/08 05:38:10;;;;;;;;;;;;;;;;;;6230004;23;19919;-90
2022/12/08 05:40:36;;;;;;;;;;;;;;;;;;6229894;23;19955;-89
2022/12/08 05:43:02;;;;;;;;;;;;;;;;;;6232756;23;20252;-89
2022/12/08 05:45:28;;;;;;;;;;;;;;;;;;6230788;23;20240;-89
2022/12/08 05:47:54;;;;;;;;;;;;;;;;;;6227109;23;20253;-88
2022/12/08 05:50:20;;;;;;;;;;;;;;;;;;6229596;23;19919;-89
2022/12/08 05:52:46;;;;;;;;;;;;;;;;;;6226613;23;19923;-89
2022/12/08 05:55:12;;;;;;;;;;;;;;;;;;6231819;22;19919;-89
2022/12/08 05:57:38;;;;;;;;;;;;;;;;;;6227342;23;19916;-89
2022/12/08 06:00:04;;;;;;;;;;;;;;;;;;6231481;23;20295;-88
2022/12/08 06:02:32;;;;;;;;;;;;;;;;;;6226432;23;19923;-89
2022/12/08 06:04:58;;;;;;;;;;;;;;;;;;6227655;23;19994;-89
2022/12/08 06:07:24;;;;;;;;;;;;;;;;;;6229793;23;19954;-90
2022/12/08 06:09:50;;;;;;;;;;;;;;;;;;6225594;23;19919;-90
2022/12/08 06:12:16;;;;;;;;;;;;;;;;;;6228869;23;19919;-91
2022/12/08 06:14:42;;;;;;;;;;;;;;;;;;6226959;23;19920;-90
2022/12/08 06:17:08;;;;;;;;;;;;;;;;;;6230050;23;19927;-91
2022/12/08 06:19:34;;;;;;;;;;;;;;;;;;6252294;22;19995;-90
2022/12/08 06:22:00;;;;;;;;;;;;;;;;;;6232184;23;19920;-90
2022/12/08 06:24:26;;;;;;;;;;;;;;;;;;6231678;23;19991;-90
2022/12/08 06:26:52;;;;;;;;;;;;;;;;;;6229907;23;20252;-90
2022/12/08 06:29:18;;;;;;;;;;;;;;;;;;6232559;23;19925;-90
2022/12/08 06:31:44;;;;;;;;;;;;;;;;;;6227885;23;19990;-90
2022/12/08 06:34:10;;;;;;;;;;;;;;;;;;6231552;23;19919;-90
2022/12/08 06:36:36;;;;;;;;;;;;;;;;;;6229711;23;19923;-90
2022/12/08 06:39:02;;;;;;;;;;;;;;;;;;6234523;23;19915;-90
2022/12/08 06:41:28;;;;;;;;;;;;;;;;;;6237295;23;19930;-89
2022/12/08 06:43:53;;;;;;;;;;;;;;;;;;6230366;23;20180;-89
2022/12/08 06:46:19;;;;;;;;;;;;;;;;;;6233471;23;19922;-89
2022/12/08 06:48:45;;;;;;;;;;;;;;;;;;6231002;23;19923;-89
2022/12/08 06:51:11;;;;;;;;;;;;;;;;;;6233048;23;20226;-89
2022/12/08 06:53:37;;;;;;;;;;;;;;;;;;6228527;23;20030;-89
2022/12/08 06:56:03;;;;;;;;;;;;;;;;;;6231574;22;19931;-89
2022/12/08 06:58:29;;;;;;;;;;;;;;;;;;6224951;23;19923;-89
2022/12/08 07:00:55;;;;;;;;;;;;;;;;;;6223200;23;19927;-90
2022/12/08 07:03:21;;;;;;;;;;;;;;;;;;6233220;23;20368;-91
2022/12/08 07:05:47;;;;;;;;;;;;;;;;;;6219683;23;20354;-90
2022/12/08 07:08:13;;;;;;;;;;;;;;;;;;6222510;23;20663;-90
2022/12/08 07:10:39;;;;;;;;;;;;;;;;;;6225230;23;19916;-89
2022/12/08 07:13:05;;;;;;;;;;;;;;;;;;6232068;23;19926;-89
2022/12/08 07:15:34;;;;;;;;;;;;;;;;;;6232285;23;19955;-89
2022/12/08 07:18:00;;;;;;;;;;;;;;;;;;6230450;23;19947;-89
2022/12/08 07:20:26;;;;;;;;;;;;;;;;;;6233642;23;19919;-89
2022/12/08 07:22:52;;;;;;;;;;;;;;;;;;6235285;23;20245;-90
2022/12/08 07:25:18;;;;;;;;;;;;;;;;;;6237647;23;19919;-90
2022/12/08 07:27:44;;;;;;;;;;;;;;;;;;6232662;23;19926;-90
2022/12/08 07:30:10;;;;;;;;;;;;;;;;;;6233621;23;19919;-91
2022/12/08 07:32:36;;;;;;;;;;;;;;;;;;6230332;23;19934;-91
2022/12/08 07:35:01;;;;;;;;;;;;;;;;;;6232464;23;19916;-91
2022/12/08 07:37:27;;;;;;;;;;;;;;;;;;6232067;23;19930;-91
2022/12/08 07:39:53;;;;;;;;;;;;;;;;;;6232335;23;19926;-92
2022/12/08 07:42:19;;;;;;;;;;;;;;;;;;6231929;23;19915;-91
2022/12/08 07:44:45;;;;;;;;;;;;;;;;;;6234064;23;19951;-93
2022/12/08 07:47:11;;;;;;;;;;;;;;;;;;6233515;23;19920;-93
2022/12/08 07:49:37;;;;;;;;;;;;;;;;;;6230027;23;19986;-93
2022/12/08 07:52:03;;;;;;;;;;;;;;;;;;6233468;23;19924;-93
2022/12/08 07:54:29;;;;;;;;;;;;;;;;;;6230849;22;19958;-93
2022/12/08 07:56:55;;;;;;;;;;;;;;;;;;6229508;23;19926;-93
2022/12/08 07:59:21;;;;;;;;;;;;;;;;;;6234205;23;20344;-94
2022/12/08 08:01:47;;;;;;;;;;;;;;;;;;6229252;23;19926;-93
2022/12/08 08:04:13;;;;;;;;;;;;;;;;;;6232752;23;19923;-93
2022/12/08 08:06:39;;;;;;;;;;;;;;;;;;6229006;23;19926;-93
2022/12/08 08:09:05;;;;;;;;;;;;;;;;;;6234581;23;19920;-93
2022/12/08 08:11:31;;;;;;;;;;;;;;;;;;6234275;23;19915;-93
2022/12/08 08:13:57;;;;;;;;;;;;;;;;;;6233593;23;20481;-92
2022/12/08 08:16:23;;;;;;;;;;;;;;;;;;6234022;23;19932;-93
2022/12/08 08:18:49;;;;;;;;;;;;;;;;;;6231280;23;19923;-93
2022/12/08 08:21:15;;;;;;;;;;;;;;;;;;6232566;23;19919;-93
2022/12/08 08:23:41;;;;;;;;;;;;;;;;;;6230851;23;19927;-92
2022/12/08 08:26:07;;;;;;;;;;;;;;;;;;6234244;23;19994;-93
2022/12/08 08:28:32;;;;;;;;;;;;;;;;;;6256429;22;20403;-93
2022/12/08 08:30:58;;;;;;;;;;;;;;;;;;6233467;23;20337;-93
2022/12/08 08:33:25;;;;;;;;;;;;;;;;;;6233120;23;20400;-93
2022/12/08 08:35:54;;;;;;;;;;;;;;;;;;6230473;23;19915;-94
2022/12/08 08:38:20;;;;;;;;;;;;;;;;;;6233376;23;19926;-94
2022/12/08 08:40:49;;;;;;;;;;;;;;;;;;6232414;23;19915;-92
2022/12/08 08:43:30;;;;;;;;;;;;;;;;;;6234631;23;19919;-94
2022/12/08 08:45:57;;;;;;;;;;;;;;;;;;6233453;23;20255;-93
2022/12/08 08:48:23;;;;;;;;;;;;;;;;;;6231919;23;19919;-94
2022/12/08 08:50:49;;;;;;;;;;;;;;;;;;6232005;23;19923;-93
2022/12/08 08:53:15;;;;;;;;;;;;;;;;;;6233494;23;19924;-93
2022/12/08 08:55:40;;;;;;;;;;;;;;;;;;6229520;22;20374;-93
2022/12/08 08:58:06;;;;;;;;;;;;;;;;;;6232894;23;20225;-93
2022/12/08 09:00:32;;;;;;;;;;;;;;;;;;6229354;23;19927;-92
2022/12/08 09:02:58;;;;;;;;;;;;;;;;;;6231083;23;20280;-93
2022/12/08 09:05:25;;;;;;;;;;;;;;;;;;6229905;23;19962;-92
2022/12/08 09:07:51;;;;;;;;;;;;;;;;;;6230604;23;19969;-93
2022/12/08 09:10:16;;;;;;;;;;;;;;;;;;6232398;23;19915;-93
2022/12/08 09:12:42;;;;;;;;;;;;;;;;;;6230184;23;19924;-93
2022/12/08 09:15:08;;;;;;;;;;;;;;;;;;6232854;23;19919;-93
2022/12/08 09:17:34;;;;;;;;;;;;;;;;;;6229239;23;19923;-93
2022/12/08 09:20:00;;;;;;;;;;;;;;;;;;6232945;23;20284;-92
2022/12/08 09:22:26;;;;;;;;;;;;;;;;;;6232579;23;20260;-93
2022/12/08 09:24:52;;;;;;;;;;;;;;;;;;6232476;23;19920;-93
2022/12/08 09:27:18;;;;;;;;;;;;;;;;;;6228920;23;20396;-93
2022/12/08 09:29:44;;;;;;;;;;;;;;;;;;6228862;23;20244;-93
2022/12/08 09:32:10;;;;;;;;;;;;;;;;;;6230249;23;19920;-93
2022/12/08 09:34:36;;;;;;;;;;;;;;;;;;6226943;23;20396;-92
2022/12/08 09:37:02;;;;;;;;;;;;;;;;;;6232021;23;19973;-93
2022/12/08 09:39:28;;;;;;;;;;;;;;;;;;6233736;23;19919;-92
2022/12/08 09:41:54;;;;;;;;;;;;;;;;;;6229741;23;20321;-93
2022/12/08 09:44:20;;;;;;;;;;;;;;;;;;6234490;23;19916;-93
2022/12/08 09:46:46;;;;;;;;;;;;;;;;;;6231822;23;20017;-93
2022/12/08 09:49:12;;;;;;;;;;;;;;;;;;6234554;23;20349;-93
2022/12/08 09:51:38;;;;;;;;;;;;;;;;;;6231073;23;20026;-93
2022/12/08 09:54:04;;;;;;;;;;;;;;;;;;6233962;22;19927;-94
2022/12/08 09:56:30;;;;;;;;;;;;;;;;;;6230628;23;19916;-93
2022/12/08 09:58:55;;;;;;;;;;;;;;;;;;6230956;23;20257;-93
2022/12/08 10:01:21;;;;;;;;;;;;;;;;;;6232458;23;20013;-93
2022/12/08 10:03:47;;;;;;;;;;;;;;;;;;6231222;23;19954;-94
2022/12/08 10:06:13;;;;;;;;;;;;;;;;;;6234226;23;20221;-93
2022/12/08 10:08:39;;;;;;;;;;;;;;;;;;6229009;23;19923;-93
2022/12/08 10:11:05;;;;;;;;;;;;;;;;;;6232358;23;19924;-93
2022/12/08 10:13:31;;;;;;;;;;;;;;;;;;6233982;23;20422;-93
2022/12/08 10:15:58;;;;;;;;;;;;;;;;;;6234692;23;20252;-93
2022/12/08 10:18:24;;;;;;;;;;;;;;;;;;6232809;23;19920;-93
2022/12/08 10:20:49;;;;;;;;;;;;;;;;;;6231982;23;19994;-93
2022/12/08 10:23:15;;;;;;;;;;;;;;;;;;6232401;23;19919;-93
2022/12/08 10:25:41;;;;;;;;;;;;;;;;;;6232665;23;19919;-93
2022/12/08 10:28:07;;;;;;;;;;;;;;;;;;6235193;23;19919;-93
2022/12/08 10:30:33;;;;;;;;;;;;;;;;;;6230215;23;20370;-94
2022/12/08 10:32:59;;;;;;;;;;;;;;;;;;6234626;23;19926;-93
2022/12/08 10:35:25;;;;;;;;;;;;;;;;;;6234303;23;20054;-92
2022/12/08 10:37:51;;;;;;;;;;;;;;;;;;6231177;23;20420;-93
2022/12/08 10:40:17;;;;;;;;;;;;;;;;;;6233210;23;19920;-93
2022/12/08 10:42:43;;;;;;;;;;;;;;;;;;6228914;23;19919;-93
2022/12/08 10:45:09;;;;;;;;;;;;;;;;;;6232241;23;19943;-94
2022/12/08 10:47:35;;;;;;;;;;;;;;;;;;6228908;23;19923;-93
2022/12/08 10:50:01;;;;;;;;;;;;;;;;;;6235696;23;19916;-93
2022/12/08 10:52:27;;;;;;;;;;;;;;;;;;6234397;23;20065;-93
2022/12/08 10:54:53;;;;;;;;;;;;;;;;;;6231801;22;19919;-93
2022/12/08 10:57:19;;;;;;;;;;;;;;;;;;6235435;23;19970;-92
2022/12/08 10:59:45;;;;;;;;;;;;;;;;;;6233611;23;19920;-92
2022/12/08 11:02:11;;;;;;;;;;;;;;;;;;6231893;23;20247;-92
2022/12/08 11:04:40;;;;;;;;;;;;;;;;;;6231520;23;19990;-92
2022/12/08 11:07:06;;;;;;;;;;;;;;;;;;6231833;23;19953;-92
2022/12/08 11:09:32;;;;;;;;;;;;;;;;;;6231321;23;19919;-92
2022/12/08 11:12:00;;;;;;;;;;;;;;;;;;6235625;23;19931;-92
2022/12/08 11:14:26;;;;;;;;;;;;;;;;;;6236978;23;20248;-93
2022/12/08 11:16:52;;;;;;;;;;;;;;;;;;6232374;23;20257;-93
2022/12/08 11:19:18;;;;;;;;;;;;;;;;;;6231641;23;19915;-93
2022/12/08 11:21:44;;;;;;;;;;;;;;;;;;6229965;23;19919;-93
2022/12/08 11:24:10;;;;;;;;;;;;;;;;;;6232242;23;19990;-92
2022/12/08 11:26:36;;;;;;;;;;;;;;;;;;6230676;23;20371;-93
2022/12/08 11:29:03;;;;;;;;;;;;;;;;;;6232054;23;20337;-92
2022/12/08 11:31:29;;;;;;;;;;;;;;;;;;6230330;23;19926;-92
2022/12/08 11:33:55;;;;;;;;;;;;;;;;;;6229251;23;19924;-92
2022/12/08 11:36:21;;;;;;;;;;;;;;;;;;6232317;23;19919;-92
2022/12/08 11:38:47;;;;;;;;;;;;;;;;;;6230733;23;20382;-92
2022/12/08 11:41:13;;;;;;;;;;;;;;;;;;6233494;23;19919;-93
2022/12/08 11:43:39;;;;;;;;;;;;;;;;;;6231402;23;19977;-93
2022/12/08 11:46:04;;;;;;;;;;;;;;;;;;6232812;23;19920;-92
2022/12/08 11:48:33;;;;;;;;;;;;;;;;;;6231763;23;19990;-93
2022/12/08 11:50:59;;;;;;;;;;;;;;;;;;6228721;23;20022;-92
2022/12/08 11:53:25;;;;;;;;;;;;;;;;;;6228532;23;19956;-94
2022/12/08 11:55:51;;;;;;;;;;;;;;;;;;6227067;22;20330;-92
2022/12/08 11:58:17;;;;;;;;;;;;;;;;;;6231514;23;20430;-93
2022/12/08 12:00:43;;;;;;;;;;;;;;;;;;6227147;23;19923;-93
2022/12/08 12:03:09;;;;;;;;;;;;;;;;;;6227528;23;19998;-92
2022/12/08 12:05:35;;;;;;;;;;;;;;;;;;6227087;23;20361;-94
2022/12/08 12:08:01;;;;;;;;;;;;;;;;;;6230598;23;20280;-92
2022/12/08 12:10:27;;;;;;;;;;;;;;;;;;6228743;23;20006;-93
2022/12/08 12:12:53;;;;;;;;;;;;;;;;;;6225837;23;20344;-94
2022/12/08 12:15:19;;;;;;;;;;;;;;;;;;6229510;23;19916;-93
2022/12/08 12:17:45;;;;;;;;;;;;;;;;;;6253737;22;19926;-94
2022/12/08 12:20:11;;;;;;;;;;;;;;;;;;6231385;23;19920;-93
2022/12/08 12:22:37;;;;;;;;;;;;;;;;;;6225743;23;19927;-92
2022/12/08 12:25:03;;;;;;;;;;;;;;;;;;6228544;23;19916;-93
2022/12/08 12:27:29;;;;;;;;;;;;;;;;;;6232075;23;19920;-93
2022/12/08 12:29:55;;;;;;;;;;;;;;;;;;6229203;23;19923;-93
2022/12/08 12:32:20;;;;;;;;;;;;;;;;;;6229358;23;19998;-93
2022/12/08 12:34:46;;;;;;;;;;;;;;;;;;6228424;23;19946;-93
2022/12/08 12:37:12;;;;;;;;;;;;;;;;;;6228462;23;20252;-93
2022/12/08 12:39:38;;;;;;;;;;;;;;;;;;6225674;23;19990;-95
2022/12/08 12:42:04;;;;;;;;;;;;;;;;;;6229484;23;20166;-95
2022/12/08 12:44:33;;;;;;;;;;;;;;;;;;6231325;23;20297;-94
2022/12/08 12:46:59;;;;;;;;;;;;;;;;;;6229982;23;20355;-94
2022/12/08 12:49:25;;;;;;;;;;;;;;;;;;6226813;23;19927;-94
2022/12/08 12:51:51;;;;;;;;;;;;;;;;;;6227087;23;20282;-95
2022/12/08 12:54:17;;;;;;;;;;;;;;;;;;6231252;22;19924;-91
2022/12/08 12:56:43;;;;;;;;;;;;;;;;;;6228090;23;19974;-92
2022/12/08 12:59:09;;;;;;;;;;;;;;;;;;6230670;23;19919;-94
2022/12/08 13:01:35;;;;;;;;;;;;;;;;;;6225077;23;19923;-93
2022/12/08 13:04:01;;;;;;;;;;;;;;;;;;6230411;23;20368;-93
2022/12/08 13:06:27;;;;;;;;;;;;;;;;;;6228015;23;20537;-93
2022/12/08 13:08:53;;;;;;;;;;;;;;;;;;6225748;23;19923;-93
2022/12/08 13:11:19;;;;;;;;;;;;;;;;;;6229155;23;19919;-93
2022/12/08 13:13:45;;;;;;;;;;;;;;;;;;6225299;23;19966;-92
2022/12/08 13:16:12;;;;;;;;;;;;;;;;;;6228615;23;20317;-93
2022/12/08 13:18:38;;;;;;;;;;;;;;;;;;6228228;23;19920;-93
2022/12/08 13:21:04;;;;;;;;;;;;;;;;;;6229042;23;19920;-93
2022/12/08 13:23:30;;;;;;;;;;;;;;;;;;6230496;23;19916;-93
2022/12/08 13:25:59;;;;;;;;;;;;;;;;;;6230626;23;19923;-93
2022/12/08 13:28:25;;;;;;;;;;;;;;;;;;6232780;23;19920;-92
2022/12/08 13:30:51;;;;;;;;;;;;;;;;;;6228819;23;20502;-94
2022/12/08 13:33:17;;;;;;;;;;;;;;;;;;6233057;23;19948;-92
2022/12/08 13:35:43;;;;;;;;;;;;;;;;;;6226014;23;19919;-94
2022/12/08 13:38:09;;;;;;;;;;;;;;;;;;6229721;23;19919;-93
2022/12/08 13:40:35;;;;;;;;;;;;;;;;;;6228121;23;19986;-93
2022/12/08 13:43:01;;;;;;;;;;;;;;;;;;6229651;23;19991;-93
2022/12/08 13:45:27;;;;;;;;;;;;;;;;;;6231149;23;19923;-93
2022/12/08 13:47:53;;;;;;;;;;;;;;;;;;6230794;23;19993;-94
2022/12/08 13:50:19;;;;;;;;;;;;;;;;;;6232736;23;19927;-94
2022/12/08 13:52:45;;;;;;;;;;;;;;;;;;6230784;23;20387;-93
2022/12/08 13:55:11;;;;;;;;;;;;;;;;;;6233275;22;19990;-94
2022/12/08 13:57:37;;;;;;;;;;;;;;;;;;6227777;23;20332;-94
2022/12/08 14:00:03;;;;;;;;;;;;;;;;;;6231904;23;20326;-92
2022/12/08 14:02:29;;;;;;;;;;;;;;;;;;6233178;23;19927;-93
2022/12/08 14:04:55;;;;;;;;;;;;;;;;;;6230130;23;19958;-94
2022/12/08 14:07:21;;;;;;;;;;;;;;;;;;6232259;23;19958;-91
2022/12/08 14:09:47;;;;;;;;;;;;;;;;;;6229474;23;20312;-93
2022/12/08 14:12:13;;;;;;;;;;;;;;;;;;6230779;23;20271;-92
2022/12/08 14:14:39;;;;;;;;;;;;;;;;;;6229610;23;19947;-93
2022/12/08 14:17:05;;;;;;;;;;;;;;;;;;6231478;23;19960;-92
2022/12/08 14:19:31;;;;;;;;;;;;;;;;;;6232770;23;20018;-93
2022/12/08 14:21:57;;;;;;;;;;;;;;;;;;6233192;22;19919;-93
2022/12/08 14:24:23;;;;;;;;;;;;;;;;;;6233657;23;19927;-94
2022/12/08 14:26:52;;;;;;;;;;;;;;;;;;6230732;23;20198;-94
2022/12/08 14:29:18;;;;;;;;;;;;;;;;;;6234343;23;19926;-93
2022/12/08 14:31:44;;;;;;;;;;;;;;;;;;6231196;23;19916;-93
2022/12/08 14:34:10;;;;;;;;;;;;;;;;;;6235509;23;19934;-94
2022/12/08 14:36:36;;;;;;;;;;;;;;;;;;6232004;23;19969;-94
2022/12/08 14:39:02;;;;;;;;;;;;;;;;;;6234161;23;20301;-93
2022/12/08 14:41:28;;;;;;;;;;;;;;;;;;6232365;23;19966;-93
2022/12/08 14:43:54;;;;;;;;;;;;;;;;;;6229640;23;19930;-94
2022/12/08 14:46:20;;;;;;;;;;;;;;;;;;6231831;23;20290;-94
2022/12/08 14:48:46;;;;;;;;;;;;;;;;;;6229783;23;19947;-93
2022/12/08 14:51:12;;;;;;;;;;;;;;;;;;6230217;23;19919;-92
2022/12/08 14:53:38;;;;;;;;;;;;;;;;;;6228848;23;20286;-93
2022/12/08 14:56:04;;;;;;;;;;;;;;;;;;6232184;22;19978;-93
2022/12/08 14:58:30;;;;;;;;;;;;;;;;;;6260340;22;19919;-93
2022/12/08 15:00:57;;;;;;;;;;;;;;;;;;6233067;23;19919;-94
2022/12/08 15:03:23;;;;;;;;;;;;;;;;;;6234638;23;19923;-94
2022/12/08 15:05:49;;;;;;;;;;;;;;;;;;6229942;23;20358;-94
2022/12/08 15:08:15;;;;;;;;;;;;;;;;;;6233104;23;20194;-94
2022/12/08 15:10:46;;;;;;;;;;;;;;;;;;6231637;23;19919;-94
2022/12/08 15:13:13;;;;;;;;;;;;;;;;;;6235918;23;19927;-93
2022/12/08 15:15:39;;;;;;;;;;;;;;;;;;6233795;23;19920;-94
2022/12/08 15:18:05;;;;;;;;;;;;;;;;;;6234713;23;19946;-92
2022/12/08 15:20:32;;;;;;;;;;;;;;;;;;6233301;23;19923;-92
2022/12/08 15:22:58;;;;;;;;;;;;;;;;;;6235548;23;20291;-92
2022/12/08 15:25:24;;;;;;;;;;;;;;;;;;6234461;23;19919;-94
2022/12/08 15:27:55;;;;;;;;;;;;;;;;;;6231785;23;20325;-93
2022/12/08 15:30:21;;;;;;;;;;;;;;;;;;6235601;23;19998;-92
2022/12/08 15:32:51;;;;;;;;;;;;;;;;;;6232370;23;19961;-93
2022/12/08 15:35:16;;;;;;;;;;;;;;;;;;6234453;23;19920;-94
2022/12/08 15:37:42;;;;;;;;;;;;;;;;;;6229720;23;19955;-93
2022/12/08 15:40:08;;;;;;;;;;;;;;;;;;6232600;23;19938;-94
2022/12/08 15:42:34;;;;;;;;;;;;;;;;;;6231603;23;19994;-94
2022/12/08 15:45:00;;;;;;;;;;;;;;;;;;6234866;23;19924;-94
2022/12/08 15:47:26;;;;;;;;;;;;;;;;;;6236416;23;19985;-94
2022/12/08 15:49:52;;;;;;;;;;;;;;;;;;6231460;23;19919;-95
2022/12/08 15:52:18;;;;;;;;;;;;;;;;;;6235957;23;19923;-94
2022/12/08 15:54:44;;;;;;;;;;;;;;;;;;6234008;22;20010;-93
2022/12/08 15:57:10;;;;;;;;;;;;;;;;;;6235702;23;19916;-93
2022/12/08 15:59:36;;;;;;;;;;;;;;;;;;6233975;23;19919;-94
2022/12/08 16:02:02;;;;;;;;;;;;;;;;;;6236056;23;20364;-93
2022/12/08 16:04:28;;;;;;;;;;;;;;;;;;6234601;23;19954;-92
2022/12/08 16:06:57;;;;;;;;;;;;;;;;;;6233194;23;20253;-93
2022/12/08 16:09:23;;;;;;;;;;;;;;;;;;6233931;23;19966;-94
2022/12/08 16:14:34;;;;;;;;;;;;;;;;;;6230822;23;19923;-93
2022/12/08 16:17:00;;;;;;;;;;;;;;;;;;6235842;23;19950;-92
2022/12/08 16:19:26;;;;;;;;;;;;;;;;;;6234530;23;19923;-94
2022/12/08 16:21:52;;;;;;;;;;;;;;;;;;6231733;23;20738;-92
2022/12/08 16:24:18;;;;;;;;;;;;;;;;;;6233419;23;19969;-91
2022/12/08 16:26:44;;;;;;;;;;;;;;;;;;6229864;23;19950;-93
2022/12/08 16:29:10;;;;;;;;;;;;;;;;;;6234865;23;20026;-92
2022/12/08 16:31:36;;;;;;;;;;;;;;;;;;6231855;23;20284;-93
2022/12/08 16:34:02;;;;;;;;;;;;;;;;;;6232221;23;20050;-93
2022/12/08 16:36:27;;;;;;;;;;;;;;;;;;6235210;23;20240;-93
2022/12/08 16:38:53;;;;;;;;;;;;;;;;;;6232076;23;19951;-92
2022/12/08 16:44:04;;;;;;;;;;;;;;;;;;6232713;23;19950;-92
2022/12/08 16:46:30;;;;;;;;;;;;;;;;;;6234716;23;20263;-93
2022/12/08 16:48:57;;;;;;;;;;;;;;;;;;6233839;23;20279;-93